Hlavní strana
METAR-TAF:

METAR-TAF

Letiště :

Čeboksary, Rusko

zeměpisná šířka: 56-05-24N, zeměpisná délka: 047-20-50E, výška: 171 m

Aktuální stav počasí

Zpráva byla vytvořena před 15 minutami, v 22:00 UTC
Západní vítr 14 kt
Teplota -1°C
Vlhkost vzduchu 86%
Tlak 1002 hPa
Viditelnost 10 km a více
Polojasno ve výšce 2000 ft

METAR: UWKS 252200Z 27007MPS 9999 SCT020 M01/M03 Q1002 R24/890236 NOSIG RMK QFE737

Čas: 01:15 (22:15 UTC)

Předpověď počasí

Zpráva byla vytvořena před 2 hodinami a 19 minutami, v 19:56 UTC
Předpověď platná od 25 v 21 UTC do 26 v 06 UTC
Západní vítr 14 kt s nárazy do 27 kt
Viditelnost: 7000 m
Oblačno až skoro zataženo ve výšce 1500 ft

TAF: UWKS 251956Z 2521/2606 26007G14MPS 7000 BKN015

Stav a předpovědi počasí z více než 4 000 letišť (zprávy METAR a TAF).

Červené a žluté tečky na mapě představují dostupné meteorologické stanice.

Když kurzor umístíte na tečku, zobrazí se název stanice.

Pak kliknutím zobrazíte stav a předpověď počasí.

Chcete-li změnit mapu, kliknutím na zelené tlačítko se znaménkem +mapu přiblížíte, kliknutím na zelené tlačítko se znaménkem – mapu oddálíte a kliknutím na zelené šipky přejdete na sousední mapy.


METAR-TAF: